HKNW METAR and TAF | Updated Today

HKNW METAR

Nairobi Wilson Airport

Observation time: 21 min. ago

HKNW 291100Z 14004KT 9999 BKN026 24/12 Q1021

Need help? Read our tutorial on how to read METARs or read the parsed version below.

Nairobi Wilson Airport (HKNW) METAR

  • Weather conditions on Sun, 29 May 2022 11:00:00 +0000 (21 min. ago):
  • Present conditions: Dry
  • Clouds: Broken sky at 792 meters
  • Visibility: Greater than 10 km
  • Wind: 140 degrees at 4 knots
  • Temperature: 24 celsius
  • Dew point: 12 celsius
  • Pressure: 1021 millibars
  • Remarks: None


Useful to know...

HKNW TAF

Nairobi Wilson Airport

TAF HKNW 290500Z 2906/3006 13010KT 9999 BKN025 BECMG 3000/3004 VRB02KT FEW008 BKN015
Observation time: 6:21 hr. ago
Need help? Read our tutorial on how to read TAFs or read the parsed version below.

Parsed version of TAF for Nairobi Wilson Airport (HKNW)

  • From 29 May at 06:00 UTC, to day 30 of the month at 06:00 UTC
  • Clouds: Broken sky at 762 meters
  • Visibility: Greater than 10 km
  • Wind: 130 degrees at 10
  • Expected to arise soon, from 30 May at 00:00 UTC, to day 30 of the month at 04:00 UTC
  • Clouds: A few at 244 meters; broken sky at 457 meters
  • Wind: Variable at 2